sensor_id;sensor_type;location;lat;lon;timestamp;P1;durP1;ratioP1;P2;durP2;ratioP2
76167;SDS011;64927;48.214;16.378;2022-11-09T00:00:41;77.05;;;43.25;;
76167;SDS011;64927;48.214;16.378;2022-11-09T00:03:07;79.65;;;46.35;;
76167;SDS011;64927;48.214;16.378;2022-11-09T00:05:33;77.68;;;45.67;;
76167;SDS011;64927;48.214;16.378;2022-11-09T00:07:59;72.22;;;43.40;;
76167;SDS011;64927;48.214;16.378;2022-11-09T00:10:25;78.75;;;44.95;;
76167;SDS011;64927;48.214;16.378;2022-11-09T00:12:51;76.90;;;43.08;;
76167;SDS011;64927;48.214;16.378;2022-11-09T00:15:16;74.43;;;43.58;;
76167;SDS011;64927;48.214;16.378;2022-11-09T00:17:42;81.85;;;45.67;;
76167;SDS011;64927;48.214;16.378;2022-11-09T00:20:08;81.28;;;44.72;;
76167;SDS011;64927;48.214;16.378;2022-11-09T00:22:34;78.78;;;44.60;;
76167;SDS011;64927;48.214;16.378;2022-11-09T00:24:59;77.63;;;43.63;;
76167;SDS011;64927;48.214;16.378;2022-11-09T00:27:25;75.82;;;42.72;;
76167;SDS011;64927;48.214;16.378;2022-11-09T00:29:51;84.82;;;47.00;;
76167;SDS011;64927;48.214;16.378;2022-11-09T00:32:17;81.30;;;45.53;;
76167;SDS011;64927;48.214;16.378;2022-11-09T00:34:43;83.90;;;44.63;;
76167;SDS011;64927;48.214;16.378;2022-11-09T00:37:11;82.93;;;44.92;;
76167;SDS011;64927;48.214;16.378;2022-11-09T00:39:37;84.47;;;46.72;;
76167;SDS011;64927;48.214;16.378;2022-11-09T00:42:02;85.53;;;46.28;;
76167;SDS011;64927;48.214;16.378;2022-11-09T00:44:28;83.22;;;46.72;;
76167;SDS011;64927;48.214;16.378;2022-11-09T00:46:53;77.55;;;44.88;;
76167;SDS011;64927;48.214;16.378;2022-11-09T00:49:19;81.15;;;46.95;;
76167;SDS011;64927;48.214;16.378;2022-11-09T00:51:45;89.88;;;47.15;;
76167;SDS011;64927;48.214;16.378;2022-11-09T00:54:10;85.30;;;45.85;;
76167;SDS011;64927;48.214;16.378;2022-11-09T00:56:36;84.63;;;47.50;;
76167;SDS011;64927;48.214;16.378;2022-11-09T00:59:02;87.40;;;47.50;;
76167;SDS011;64927;48.214;16.378;2022-11-09T01:01:32;83.57;;;46.03;;
76167;SDS011;64927;48.214;16.378;2022-11-09T01:04:00;90.50;;;45.45;;
76167;SDS011;64927;48.214;16.378;2022-11-09T01:06:25;83.93;;;46.45;;
76167;SDS011;64927;48.214;16.378;2022-11-09T01:08:51;89.75;;;47.17;;
76167;SDS011;64927;48.214;16.378;2022-11-09T01:11:18;83.28;;;44.63;;
76167;SDS011;64927;48.214;16.378;2022-11-09T01:13:45;78.38;;;44.40;;
76167;SDS011;64927;48.214;16.378;2022-11-09T01:16:12;80.15;;;45.15;;
76167;SDS011;64927;48.214;16.378;2022-11-09T01:18:39;81.05;;;45.08;;
76167;SDS011;64927;48.214;16.378;2022-11-09T01:21:06;84.15;;;45.85;;
76167;SDS011;64927;48.214;16.378;2022-11-09T01:23:33;80.07;;;45.67;;
76167;SDS011;64927;48.214;16.378;2022-11-09T01:26:00;82.50;;;44.30;;
76167;SDS011;64927;48.214;16.378;2022-11-09T01:28:30;86.50;;;46.55;;
76167;SDS011;64927;48.214;16.378;2022-11-09T01:30:59;89.38;;;46.72;;
76167;SDS011;64927;48.214;16.378;2022-11-09T01:33:26;96.05;;;49.50;;
76167;SDS011;64927;48.214;16.378;2022-11-09T01:35:52;87.03;;;45.05;;
76167;SDS011;64927;48.214;16.378;2022-11-09T01:38:17;91.15;;;50.10;;
76167;SDS011;64927;48.214;16.378;2022-11-09T01:40:43;89.28;;;45.60;;
76167;SDS011;64927;48.214;16.378;2022-11-09T01:43:19;89.88;;;46.85;;
76167;SDS011;64927;48.214;16.378;2022-11-09T01:45:54;100.50;;;48.17;;
76167;SDS011;64927;48.214;16.378;2022-11-09T01:51:39;103.47;;;50.40;;
76167;SDS011;64927;48.214;16.378;2022-11-09T01:54:15;103.63;;;49.80;;
76167;SDS011;64927;48.214;16.378;2022-11-09T01:56:44;116.60;;;52.20;;
76167;SDS011;64927;48.214;16.378;2022-11-09T01:59:14;106.35;;;49.03;;
76167;SDS011;64927;48.214;16.378;2022-11-09T02:01:43;95.72;;;49.03;;
76167;SDS011;64927;48.214;16.378;2022-11-09T02:04:10;102.70;;;50.72;;
76167;SDS011;64927;48.214;16.378;2022-11-09T02:06:40;106.47;;;52.17;;
76167;SDS011;64927;48.214;16.378;2022-11-09T02:09:29;104.97;;;52.50;;
76167;SDS011;64927;48.214;16.378;2022-11-09T02:11:58;102.00;;;49.35;;
76167;SDS011;64927;48.214;16.378;2022-11-09T02:14:24;103.95;;;50.08;;
76167;SDS011;64927;48.214;16.378;2022-11-09T02:16:51;104.93;;;51.35;;
76167;SDS011;64927;48.214;16.378;2022-11-09T02:19:17;102.10;;;50.17;;
76167;SDS011;64927;48.214;16.378;2022-11-09T02:21:43;109.72;;;51.75;;
76167;SDS011;64927;48.214;16.378;2022-11-09T02:24:09;103.10;;;50.63;;
76167;SDS011;64927;48.214;16.378;2022-11-09T02:26:39;98.53;;;49.03;;
76167;SDS011;64927;48.214;16.378;2022-11-09T02:29:10;97.50;;;48.97;;
76167;SDS011;64927;48.214;16.378;2022-11-09T02:31:38;109.78;;;51.70;;
76167;SDS011;64927;48.214;16.378;2022-11-09T02:34:12;95.68;;;47.72;;
76167;SDS011;64927;48.214;16.378;2022-11-09T02:36:43;91.88;;;46.30;;
76167;SDS011;64927;48.214;16.378;2022-11-09T02:39:09;91.00;;;45.13;;
76167;SDS011;64927;48.214;16.378;2022-11-09T02:41:37;93.70;;;45.78;;
76167;SDS011;64927;48.214;16.378;2022-11-09T02:44:10;96.03;;;47.38;;
76167;SDS011;64927;48.214;16.378;2022-11-09T02:46:36;95.35;;;49.35;;
76167;SDS011;64927;48.214;16.378;2022-11-09T02:49:02;91.78;;;47.33;;
76167;SDS011;64927;48.214;16.378;2022-11-09T02:51:28;91.95;;;45.95;;
76167;SDS011;64927;48.214;16.378;2022-11-09T02:53:54;93.75;;;46.08;;
76167;SDS011;64927;48.214;16.378;2022-11-09T02:56:20;95.47;;;47.42;;
76167;SDS011;64927;48.214;16.378;2022-11-09T02:58:46;96.60;;;46.50;;
76167;SDS011;64927;48.214;16.378;2022-11-09T03:01:11;103.43;;;47.90;;
76167;SDS011;64927;48.214;16.378;2022-11-09T03:03:37;100.20;;;46.50;;
76167;SDS011;64927;48.214;16.378;2022-11-09T03:06:03;99.05;;;48.40;;
76167;SDS011;64927;48.214;16.378;2022-11-09T03:08:28;94.85;;;45.75;;
76167;SDS011;64927;48.214;16.378;2022-11-09T03:10:58;101.20;;;46.83;;
76167;SDS011;64927;48.214;16.378;2022-11-09T03:13:24;94.78;;;46.53;;
76167;SDS011;64927;48.214;16.378;2022-11-09T03:15:49;89.00;;;44.80;;
76167;SDS011;64927;48.214;16.378;2022-11-09T03:18:15;92.68;;;47.60;;
76167;SDS011;64927;48.214;16.378;2022-11-09T03:20:41;91.47;;;45.25;;
76167;SDS011;64927;48.214;16.378;2022-11-09T03:23:07;85.32;;;44.83;;
76167;SDS011;64927;48.214;16.378;2022-11-09T03:25:32;90.78;;;46.40;;
76167;SDS011;64927;48.214;16.378;2022-11-09T03:28:01;85.50;;;45.95;;
76167;SDS011;64927;48.214;16.378;2022-11-09T03:30:32;89.75;;;46.90;;
76167;SDS011;64927;48.214;16.378;2022-11-09T03:32:59;81.90;;;43.13;;
76167;SDS011;64927;48.214;16.378;2022-11-09T03:35:25;86.97;;;45.28;;
76167;SDS011;64927;48.214;16.378;2022-11-09T03:37:52;84.75;;;44.28;;
76167;SDS011;64927;48.214;16.378;2022-11-09T03:40:20;94.25;;;47.17;;
76167;SDS011;64927;48.214;16.378;2022-11-09T03:42:46;97.03;;;48.20;;
76167;SDS011;64927;48.214;16.378;2022-11-09T03:45:15;90.40;;;45.00;;
76167;SDS011;64927;48.214;16.378;2022-11-09T03:47:44;91.55;;;46.40;;
76167;SDS011;64927;48.214;16.378;2022-11-09T03:50:11;89.32;;;46.15;;
76167;SDS011;64927;48.214;16.378;2022-11-09T03:52:38;94.03;;;45.67;;
76167;SDS011;64927;48.214;16.378;2022-11-09T03:55:04;85.47;;;44.65;;
76167;SDS011;64927;48.214;16.378;2022-11-09T03:57:30;93.32;;;45.83;;
76167;SDS011;64927;48.214;16.378;2022-11-09T03:59:58;90.75;;;45.40;;
76167;SDS011;64927;48.214;16.378;2022-11-09T04:02:24;92.22;;;46.17;;
76167;SDS011;64927;48.214;16.378;2022-11-09T04:04:50;86.18;;;46.70;;
76167;SDS011;64927;48.214;16.378;2022-11-09T04:07:18;87.30;;;44.53;;
76167;SDS011;64927;48.214;16.378;2022-11-09T04:09:43;88.22;;;46.35;;
76167;SDS011;64927;48.214;16.378;2022-11-09T04:12:09;82.65;;;45.30;;
76167;SDS011;64927;48.214;16.378;2022-11-09T04:14:37;86.40;;;46.78;;
76167;SDS011;64927;48.214;16.378;2022-11-09T04:17:02;95.40;;;46.95;;
76167;SDS011;64927;48.214;16.378;2022-11-09T04:19:28;87.22;;;46.90;;
76167;SDS011;64927;48.214;16.378;2022-11-09T04:21:56;89.45;;;46.60;;
76167;SDS011;64927;48.214;16.378;2022-11-09T04:24:21;90.65;;;48.10;;
76167;SDS011;64927;48.214;16.378;2022-11-09T04:26:47;93.57;;;48.85;;
76167;SDS011;64927;48.214;16.378;2022-11-09T04:29:12;86.47;;;46.33;;
76167;SDS011;64927;48.214;16.378;2022-11-09T04:31:38;90.32;;;48.80;;
76167;SDS011;64927;48.214;16.378;2022-11-09T04:34:04;85.97;;;47.00;;
76167;SDS011;64927;48.214;16.378;2022-11-09T04:36:29;88.88;;;47.85;;
76167;SDS011;64927;48.214;16.378;2022-11-09T04:38:55;94.85;;;48.63;;
76167;SDS011;64927;48.214;16.378;2022-11-09T04:41:21;88.22;;;46.22;;
76167;SDS011;64927;48.214;16.378;2022-11-09T04:43:46;85.40;;;46.95;;
76167;SDS011;64927;48.214;16.378;2022-11-09T04:46:12;81.47;;;44.60;;
76167;SDS011;64927;48.214;16.378;2022-11-09T04:48:38;79.70;;;46.67;;
76167;SDS011;64927;48.214;16.378;2022-11-09T04:51:04;92.28;;;49.45;;
76167;SDS011;64927;48.214;16.378;2022-11-09T04:53:32;98.82;;;51.65;;
76167;SDS011;64927;48.214;16.378;2022-11-09T04:55:58;87.50;;;48.30;;
76167;SDS011;64927;48.214;16.378;2022-11-09T04:58:24;94.65;;;49.20;;
76167;SDS011;64927;48.214;16.378;2022-11-09T05:00:50;87.13;;;49.17;;
76167;SDS011;64927;48.214;16.378;2022-11-09T05:03:16;93.20;;;49.28;;
76167;SDS011;64927;48.214;16.378;2022-11-09T05:05:44;92.00;;;48.17;;
76167;SDS011;64927;48.214;16.378;2022-11-09T05:08:10;90.38;;;47.63;;
76167;SDS011;64927;48.214;16.378;2022-11-09T05:10:38;88.90;;;43.40;;
76167;SDS011;64927;48.214;16.378;2022-11-09T05:13:05;91.97;;;47.92;;
76167;SDS011;64927;48.214;16.378;2022-11-09T05:15:32;93.18;;;47.83;;
76167;SDS011;64927;48.214;16.378;2022-11-09T05:17:59;93.07;;;49.20;;
76167;SDS011;64927;48.214;16.378;2022-11-09T05:20:27;96.45;;;48.67;;
76167;SDS011;64927;48.214;16.378;2022-11-09T05:22:53;97.93;;;49.67;;
76167;SDS011;64927;48.214;16.378;2022-11-09T05:25:39;92.25;;;48.72;;
76167;SDS011;64927;48.214;16.378;2022-11-09T05:28:05;95.60;;;50.63;;
76167;SDS011;64927;48.214;16.378;2022-11-09T05:30:30;97.47;;;49.90;;
76167;SDS011;64927;48.214;16.378;2022-11-09T05:32:58;98.82;;;47.58;;
76167;SDS011;64927;48.214;16.378;2022-11-09T05:35:24;96.03;;;50.80;;
76167;SDS011;64927;48.214;16.378;2022-11-09T05:37:50;92.10;;;47.55;;
76167;SDS011;64927;48.214;16.378;2022-11-09T05:40:18;93.68;;;47.03;;
76167;SDS011;64927;48.214;16.378;2022-11-09T05:42:44;95.97;;;47.50;;
76167;SDS011;64927;48.214;16.378;2022-11-09T05:45:11;92.43;;;47.08;;
76167;SDS011;64927;48.214;16.378;2022-11-09T05:47:39;93.15;;;45.35;;
76167;SDS011;64927;48.214;16.378;2022-11-09T05:50:09;93.72;;;45.78;;
76167;SDS011;64927;48.214;16.378;2022-11-09T05:52:37;95.20;;;46.05;;
76167;SDS011;64927;48.214;16.378;2022-11-09T05:55:03;90.82;;;44.50;;
76167;SDS011;64927;48.214;16.378;2022-11-09T05:57:29;97.88;;;45.97;;
76167;SDS011;64927;48.214;16.378;2022-11-09T05:59:58;90.93;;;43.50;;
76167;SDS011;64927;48.214;16.378;2022-11-09T06:02:23;88.25;;;43.03;;
76167;SDS011;64927;48.214;16.378;2022-11-09T06:04:49;84.47;;;42.08;;
76167;SDS011;64927;48.214;16.378;2022-11-09T06:07:17;85.30;;;42.60;;
76167;SDS011;64927;48.214;16.378;2022-11-09T06:09:43;86.97;;;44.83;;
76167;SDS011;64927;48.214;16.378;2022-11-09T06:12:08;85.75;;;43.15;;
76167;SDS011;64927;48.214;16.378;2022-11-09T06:14:34;90.15;;;43.30;;
76167;SDS011;64927;48.214;16.378;2022-11-09T06:16:59;89.75;;;43.20;;
76167;SDS011;64927;48.214;16.378;2022-11-09T06:19:25;94.00;;;44.78;;
76167;SDS011;64927;48.214;16.378;2022-11-09T06:21:51;94.28;;;43.97;;
76167;SDS011;64927;48.214;16.378;2022-11-09T06:24:16;85.65;;;42.45;;
76167;SDS011;64927;48.214;16.378;2022-11-09T06:26:42;82.72;;;41.10;;
76167;SDS011;64927;48.214;16.378;2022-11-09T06:29:07;84.93;;;46.13;;
76167;SDS011;64927;48.214;16.378;2022-11-09T06:31:34;83.63;;;43.25;;
76167;SDS011;64927;48.214;16.378;2022-11-09T06:33:59;83.90;;;41.40;;
76167;SDS011;64927;48.214;16.378;2022-11-09T06:36:25;83.60;;;40.65;;
76167;SDS011;64927;48.214;16.378;2022-11-09T06:38:51;88.95;;;40.85;;
76167;SDS011;64927;48.214;16.378;2022-11-09T06:41:19;81.32;;;41.50;;
76167;SDS011;64927;48.214;16.378;2022-11-09T06:43:44;78.15;;;40.72;;
76167;SDS011;64927;48.214;16.378;2022-11-09T06:46:13;75.28;;;39.05;;
76167;SDS011;64927;48.214;16.378;2022-11-09T06:48:41;79.53;;;42.03;;
76167;SDS011;64927;48.214;16.378;2022-11-09T06:51:08;82.53;;;40.90;;
76167;SDS011;64927;48.214;16.378;2022-11-09T06:53:35;83.47;;;40.90;;
76167;SDS011;64927;48.214;16.378;2022-11-09T06:56:02;78.00;;;39.38;;
76167;SDS011;64927;48.214;16.378;2022-11-09T06:58:31;79.03;;;40.05;;
76167;SDS011;64927;48.214;16.378;2022-11-09T07:00:57;82.60;;;41.83;;
76167;SDS011;64927;48.214;16.378;2022-11-09T07:03:23;77.63;;;39.25;;
76167;SDS011;64927;48.214;16.378;2022-11-09T07:05:49;83.85;;;41.05;;
76167;SDS011;64927;48.214;16.378;2022-11-09T07:08:16;78.53;;;39.45;;
76167;SDS011;64927;48.214;16.378;2022-11-09T07:10:42;85.07;;;42.50;;
76167;SDS011;64927;48.214;16.378;2022-11-09T07:13:09;82.60;;;40.00;;
76167;SDS011;64927;48.214;16.378;2022-11-09T07:15:35;75.90;;;40.08;;
76167;SDS011;64927;48.214;16.378;2022-11-09T07:18:03;77.85;;;39.95;;
76167;SDS011;64927;48.214;16.378;2022-11-09T07:20:30;75.90;;;38.63;;
76167;SDS011;64927;48.214;16.378;2022-11-09T07:22:58;67.95;;;37.60;;
76167;SDS011;64927;48.214;16.378;2022-11-09T07:25:24;77.65;;;40.17;;
76167;SDS011;64927;48.214;16.378;2022-11-09T07:27:51;70.05;;;37.22;;
76167;SDS011;64927;48.214;16.378;2022-11-09T07:30:17;71.60;;;38.88;;
76167;SDS011;64927;48.214;16.378;2022-11-09T07:32:43;64.03;;;36.60;;
76167;SDS011;64927;48.214;16.378;2022-11-09T07:35:08;72.20;;;37.60;;
76167;SDS011;64927;48.214;16.378;2022-11-09T07:37:34;71.28;;;36.72;;
76167;SDS011;64927;48.214;16.378;2022-11-09T07:40:00;70.78;;;37.70;;
76167;SDS011;64927;48.214;16.378;2022-11-09T07:42:26;69.38;;;36.25;;
76167;SDS011;64927;48.214;16.378;2022-11-09T07:44:51;70.38;;;37.85;;
76167;SDS011;64927;48.214;16.378;2022-11-09T07:47:17;65.25;;;36.80;;
76167;SDS011;64927;48.214;16.378;2022-11-09T07:49:44;64.38;;;36.00;;
76167;SDS011;64927;48.214;16.378;2022-11-09T07:52:10;68.40;;;36.45;;
76167;SDS011;64927;48.214;16.378;2022-11-09T07:54:37;74.63;;;40.40;;
76167;SDS011;64927;48.214;16.378;2022-11-09T07:57:03;74.88;;;38.25;;
76167;SDS011;64927;48.214;16.378;2022-11-09T07:59:30;73.50;;;36.15;;
76167;SDS011;64927;48.214;16.378;2022-11-09T08:01:58;73.28;;;40.10;;
76167;SDS011;64927;48.214;16.378;2022-11-09T08:04:24;71.70;;;38.70;;
76167;SDS011;64927;48.214;16.378;2022-11-09T08:06:53;67.60;;;39.10;;
76167;SDS011;64927;48.214;16.378;2022-11-09T08:09:19;75.82;;;40.17;;
76167;SDS011;64927;48.214;16.378;2022-11-09T08:11:44;75.32;;;39.60;;
76167;SDS011;64927;48.214;16.378;2022-11-09T08:14:10;72.60;;;39.80;;
76167;SDS011;64927;48.214;16.378;2022-11-09T08:16:36;73.55;;;41.55;;
76167;SDS011;64927;48.214;16.378;2022-11-09T08:19:02;74.85;;;38.90;;
76167;SDS011;64927;48.214;16.378;2022-11-09T08:21:27;73.32;;;38.78;;
76167;SDS011;64927;48.214;16.378;2022-11-09T08:23:53;72.38;;;38.08;;
76167;SDS011;64927;48.214;16.378;2022-11-09T08:26:19;75.05;;;38.78;;
76167;SDS011;64927;48.214;16.378;2022-11-09T08:28:44;71.47;;;37.67;;
76167;SDS011;64927;48.214;16.378;2022-11-09T08:31:10;74.57;;;37.25;;
76167;SDS011;64927;48.214;16.378;2022-11-09T08:33:37;75.28;;;36.45;;
76167;SDS011;64927;48.214;16.378;2022-11-09T08:36:08;72.60;;;39.47;;
76167;SDS011;64927;48.214;16.378;2022-11-09T08:38:34;73.47;;;36.80;;
76167;SDS011;64927;48.214;16.378;2022-11-09T08:41:00;78.50;;;39.00;;
76167;SDS011;64927;48.214;16.378;2022-11-09T08:43:26;71.15;;;38.17;;
76167;SDS011;64927;48.214;16.378;2022-11-09T08:45:51;71.25;;;37.15;;
76167;SDS011;64927;48.214;16.378;2022-11-09T08:48:17;71.53;;;37.72;;
76167;SDS011;64927;48.214;16.378;2022-11-09T08:50:43;72.78;;;37.33;;
76167;SDS011;64927;48.214;16.378;2022-11-09T08:53:15;72.88;;;36.97;;
76167;SDS011;64927;48.214;16.378;2022-11-09T08:55:41;75.68;;;38.88;;
76167;SDS011;64927;48.214;16.378;2022-11-09T08:58:06;68.20;;;35.95;;
76167;SDS011;64927;48.214;16.378;2022-11-09T09:00:32;68.88;;;36.33;;
76167;SDS011;64927;48.214;16.378;2022-11-09T09:03:01;66.82;;;37.38;;
76167;SDS011;64927;48.214;16.378;2022-11-09T09:05:28;66.78;;;33.70;;
76167;SDS011;64927;48.214;16.378;2022-11-09T09:07:53;66.18;;;35.72;;
76167;SDS011;64927;48.214;16.378;2022-11-09T09:10:19;64.35;;;34.85;;
76167;SDS011;64927;48.214;16.378;2022-11-09T09:12:45;70.13;;;35.67;;
76167;SDS011;64927;48.214;16.378;2022-11-09T09:15:10;77.03;;;37.35;;
76167;SDS011;64927;48.214;16.378;2022-11-09T09:17:36;71.75;;;38.15;;
76167;SDS011;64927;48.214;16.378;2022-11-09T09:20:04;74.05;;;36.05;;
76167;SDS011;64927;48.214;16.378;2022-11-09T09:22:30;69.18;;;36.22;;
76167;SDS011;64927;48.214;16.378;2022-11-09T09:24:57;66.55;;;34.83;;
76167;SDS011;64927;48.214;16.378;2022-11-09T09:27:23;66.53;;;34.63;;
76167;SDS011;64927;48.214;16.378;2022-11-09T09:29:48;65.82;;;34.35;;
76167;SDS011;64927;48.214;16.378;2022-11-09T09:32:14;72.60;;;34.95;;
76167;SDS011;64927;48.214;16.378;2022-11-09T09:34:39;63.88;;;34.15;;
76167;SDS011;64927;48.214;16.378;2022-11-09T09:37:05;71.60;;;35.05;;
76167;SDS011;64927;48.214;16.378;2022-11-09T09:39:33;62.30;;;34.10;;
76167;SDS011;64927;48.214;16.378;2022-11-09T09:41:59;63.03;;;35.70;;
76167;SDS011;64927;48.214;16.378;2022-11-09T09:44:52;66.32;;;34.83;;
76167;SDS011;64927;48.214;16.378;2022-11-09T09:50:07;65.68;;;36.92;;
76167;SDS011;64927;48.214;16.378;2022-11-09T09:52:48;64.75;;;35.33;;
76167;SDS011;64927;48.214;16.378;2022-11-09T09:55:33;63.65;;;34.13;;
76167;SDS011;64927;48.214;16.378;2022-11-09T09:58:05;66.63;;;34.78;;
76167;SDS011;64927;48.214;16.378;2022-11-09T10:00:49;69.72;;;35.45;;
76167;SDS011;64927;48.214;16.378;2022-11-09T10:03:17;72.72;;;34.85;;
76167;SDS011;64927;48.214;16.378;2022-11-09T10:13:59;62.50;;;33.17;;
76167;SDS011;64927;48.214;16.378;2022-11-09T10:16:43;61.70;;;31.17;;
76167;SDS011;64927;48.214;16.378;2022-11-09T10:19:35;60.80;;;32.17;;
76167;SDS011;64927;48.214;16.378;2022-11-09T10:24:50;57.35;;;31.08;;
76167;SDS011;64927;48.214;16.378;2022-11-09T10:27:28;58.10;;;30.33;;
76167;SDS011;64927;48.214;16.378;2022-11-09T10:30:00;59.15;;;32.15;;
76167;SDS011;64927;48.214;16.378;2022-11-09T10:32:33;55.75;;;29.92;;
76167;SDS011;64927;48.214;16.378;2022-11-09T10:37:42;60.55;;;32.22;;
76167;SDS011;64927;48.214;16.378;2022-11-09T10:42:57;55.78;;;29.77;;
76167;SDS011;64927;48.214;16.378;2022-11-09T10:45:31;57.60;;;31.58;;
76167;SDS011;64927;48.214;16.378;2022-11-09T10:47:58;56.92;;;29.67;;
76167;SDS011;64927;48.214;16.378;2022-11-09T10:53:20;58.65;;;30.70;;
76167;SDS011;64927;48.214;16.378;2022-11-09T11:01:13;55.10;;;32.33;;
76167;SDS011;64927;48.214;16.378;2022-11-09T11:03:49;52.88;;;28.30;;
76167;SDS011;64927;48.214;16.378;2022-11-09T11:08:50;52.42;;;28.80;;
76167;SDS011;64927;48.214;16.378;2022-11-09T11:14:32;51.15;;;28.35;;
76167;SDS011;64927;48.214;16.378;2022-11-09T11:16:38;53.90;;;29.15;;
76167;SDS011;64927;48.214;16.378;2022-11-09T11:19:24;50.40;;;28.35;;
76167;SDS011;64927;48.214;16.378;2022-11-09T11:27:18;52.20;;;30.08;;
76167;SDS011;64927;48.214;16.378;2022-11-09T11:29:46;52.75;;;29.77;;
76167;SDS011;64927;48.214;16.378;2022-11-09T11:32:18;55.03;;;29.70;;
76167;SDS011;64927;48.214;16.378;2022-11-09T11:34:44;54.63;;;29.95;;
76167;SDS011;64927;48.214;16.378;2022-11-09T11:53:08;48.30;;;28.42;;
76167;SDS011;64927;48.214;16.378;2022-11-09T11:58:27;56.42;;;31.00;;
76167;SDS011;64927;48.214;16.378;2022-11-09T12:08:51;51.80;;;29.83;;
76167;SDS011;64927;48.214;16.378;2022-11-09T12:11:41;53.13;;;30.08;;
76167;SDS011;64927;48.214;16.378;2022-11-09T12:14:24;65.35;;;39.80;;
76167;SDS011;64927;48.214;16.378;2022-11-09T12:16:54;59.15;;;32.90;;
76167;SDS011;64927;48.214;16.378;2022-11-09T12:28:13;59.10;;;31.88;;
76167;SDS011;64927;48.214;16.378;2022-11-09T12:39:23;56.45;;;31.17;;
76167;SDS011;64927;48.214;16.378;2022-11-09T12:42:08;58.85;;;33.05;;
76167;SDS011;64927;48.214;16.378;2022-11-09T12:44:45;61.30;;;37.95;;
76167;SDS011;64927;48.214;16.378;2022-11-09T12:47:41;57.83;;;32.80;;
76167;SDS011;64927;48.214;16.378;2022-11-09T12:50:16;60.83;;;32.60;;
76167;SDS011;64927;48.214;16.378;2022-11-09T12:52:47;60.95;;;33.22;;
76167;SDS011;64927;48.214;16.378;2022-11-09T12:55:18;58.47;;;30.60;;
76167;SDS011;64927;48.214;16.378;2022-11-09T13:01:01;85.70;;;56.03;;
76167;SDS011;64927;48.214;16.378;2022-11-09T13:03:34;58.63;;;34.65;;
76167;SDS011;64927;48.214;16.378;2022-11-09T13:08:36;51.35;;;32.97;;
76167;SDS011;64927;48.214;16.378;2022-11-09T13:11:16;64.40;;;34.88;;
76167;SDS011;64927;48.214;16.378;2022-11-09T13:16:45;67.40;;;37.00;;
76167;SDS011;64927;48.214;16.378;2022-11-09T13:19:19;60.78;;;31.73;;
76167;SDS011;64927;48.214;16.378;2022-11-09T13:40:55;97.35;;;54.05;;
76167;SDS011;64927;48.214;16.378;2022-11-09T13:45:59;78.15;;;42.05;;
76167;SDS011;64927;48.214;16.378;2022-11-09T13:51:13;56.42;;;29.55;;
76167;SDS011;64927;48.214;16.378;2022-11-09T13:56:54;51.65;;;30.08;;
76167;SDS011;64927;48.214;16.378;2022-11-09T13:59:16;49.95;;;27.75;;
76167;SDS011;64927;48.214;16.378;2022-11-09T14:01:48;47.85;;;28.67;;
76167;SDS011;64927;48.214;16.378;2022-11-09T14:04:39;54.67;;;30.35;;
76167;SDS011;64927;48.214;16.378;2022-11-09T14:07:14;49.83;;;28.88;;
76167;SDS011;64927;48.214;16.378;2022-11-09T14:24:21;52.83;;;29.48;;
76167;SDS011;64927;48.214;16.378;2022-11-09T14:29:28;55.05;;;32.25;;
76167;SDS011;64927;48.214;16.378;2022-11-09T14:32:01;60.40;;;32.38;;
76167;SDS011;64927;48.214;16.378;2022-11-09T14:34:46;54.67;;;31.15;;
76167;SDS011;64927;48.214;16.378;2022-11-09T14:37:12;53.45;;;29.40;;
76167;SDS011;64927;48.214;16.378;2022-11-09T14:39:39;51.33;;;30.15;;
76167;SDS011;64927;48.214;16.378;2022-11-09T14:42:10;55.35;;;31.25;;
76167;SDS011;64927;48.214;16.378;2022-11-09T14:44:42;48.03;;;28.92;;
76167;SDS011;64927;48.214;16.378;2022-11-09T14:47:26;55.78;;;31.85;;
76167;SDS011;64927;48.214;16.378;2022-11-09T14:49:58;45.25;;;27.45;;
76167;SDS011;64927;48.214;16.378;2022-11-09T14:52:25;53.15;;;30.00;;
76167;SDS011;64927;48.214;16.378;2022-11-09T14:54:53;62.58;;;29.63;;
76167;SDS011;64927;48.214;16.378;2022-11-09T14:57:22;52.35;;;31.20;;
76167;SDS011;64927;48.214;16.378;2022-11-09T14:59:48;53.70;;;29.35;;
76167;SDS011;64927;48.214;16.378;2022-11-09T15:02:17;50.58;;;28.80;;
76167;SDS011;64927;48.214;16.378;2022-11-09T15:05:00;50.60;;;30.73;;
76167;SDS011;64927;48.214;16.378;2022-11-09T15:07:30;55.38;;;32.13;;
76167;SDS011;64927;48.214;16.378;2022-11-09T15:09:58;51.35;;;30.35;;
76167;SDS011;64927;48.214;16.378;2022-11-09T15:12:27;55.97;;;30.40;;
76167;SDS011;64927;48.214;16.378;2022-11-09T15:14:55;54.05;;;29.95;;
76167;SDS011;64927;48.214;16.378;2022-11-09T15:20:25;58.35;;;33.92;;
76167;SDS011;64927;48.214;16.378;2022-11-09T15:22:47;54.05;;;30.35;;
76167;SDS011;64927;48.214;16.378;2022-11-09T15:28:12;61.88;;;32.97;;
76167;SDS011;64927;48.214;16.378;2022-11-09T15:30:46;49.35;;;29.83;;
76167;SDS011;64927;48.214;16.378;2022-11-09T15:33:19;50.78;;;30.00;;
76167;SDS011;64927;48.214;16.378;2022-11-09T15:41:04;61.33;;;32.80;;
76167;SDS011;64927;48.214;16.378;2022-11-09T15:43:49;56.92;;;36.08;;
76167;SDS011;64927;48.214;16.378;2022-11-09T15:46:18;63.78;;;35.85;;
76167;SDS011;64927;48.214;16.378;2022-11-09T15:49:05;63.25;;;31.63;;
76167;SDS011;64927;48.214;16.378;2022-11-09T15:51:44;67.15;;;33.13;;
76167;SDS011;64927;48.214;16.378;2022-11-09T15:54:10;53.25;;;31.77;;
76167;SDS011;64927;48.214;16.378;2022-11-09T15:56:37;55.75;;;31.00;;
76167;SDS011;64927;48.214;16.378;2022-11-09T15:59:02;56.03;;;31.38;;
76167;SDS011;64927;48.214;16.378;2022-11-09T16:01:29;51.53;;;31.35;;
76167;SDS011;64927;48.214;16.378;2022-11-09T16:03:57;55.55;;;31.08;;
76167;SDS011;64927;48.214;16.378;2022-11-09T16:06:23;62.03;;;31.77;;
76167;SDS011;64927;48.214;16.378;2022-11-09T16:08:51;56.60;;;29.33;;
76167;SDS011;64927;48.214;16.378;2022-11-09T16:11:17;52.72;;;30.52;;
76167;SDS011;64927;48.214;16.378;2022-11-09T16:13:43;54.90;;;32.70;;
76167;SDS011;64927;48.214;16.378;2022-11-09T16:16:10;52.25;;;30.40;;
76167;SDS011;64927;48.214;16.378;2022-11-09T16:18:37;53.55;;;30.92;;
76167;SDS011;64927;48.214;16.378;2022-11-09T16:21:10;56.05;;;29.52;;
76167;SDS011;64927;48.214;16.378;2022-11-09T16:23:38;57.15;;;30.23;;
76167;SDS011;64927;48.214;16.378;2022-11-09T16:26:05;53.63;;;32.88;;
76167;SDS011;64927;48.214;16.378;2022-11-09T16:28:35;55.92;;;33.42;;
76167;SDS011;64927;48.214;16.378;2022-11-09T16:31:03;52.60;;;30.65;;
76167;SDS011;64927;48.214;16.378;2022-11-09T16:33:30;54.10;;;30.15;;
76167;SDS011;64927;48.214;16.378;2022-11-09T16:35:58;60.53;;;33.42;;
76167;SDS011;64927;48.214;16.378;2022-11-09T16:38:29;52.92;;;30.38;;
76167;SDS011;64927;48.214;16.378;2022-11-09T16:40:59;57.90;;;31.08;;
76167;SDS011;64927;48.214;16.378;2022-11-09T16:43:30;51.50;;;29.30;;
76167;SDS011;64927;48.214;16.378;2022-11-09T16:45:56;47.13;;;28.63;;